sensor_id;sensor_type;location;lat;lon;timestamp;temperature;humidity
33827;DHT22;20128;45.582;5.298;2024-03-23T00:54:22;16.80;73.70
33827;DHT22;20128;45.582;5.298;2024-03-23T00:56:48;16.70;73.70
33827;DHT22;20128;45.582;5.298;2024-03-23T00:59:13;16.60;73.70
33827;DHT22;20128;45.582;5.298;2024-03-23T01:01:39;16.60;73.50
33827;DHT22;20128;45.582;5.298;2024-03-23T01:04:05;16.60;73.70
33827;DHT22;20128;45.582;5.298;2024-03-23T01:06:30;16.60;73.80
33827;DHT22;20128;45.582;5.298;2024-03-23T01:08:56;16.50;73.50
33827;DHT22;20128;45.582;5.298;2024-03-23T01:11:22;16.50;73.40
33827;DHT22;20128;45.582;5.298;2024-03-23T01:13:47;16.50;73.60
33827;DHT22;20128;45.582;5.298;2024-03-23T01:16:13;16.50;74.30
33827;DHT22;20128;45.582;5.298;2024-03-23T01:18:39;16.50;74.10
33827;DHT22;20128;45.582;5.298;2024-03-23T01:21:04;16.50;73.90
33827;DHT22;20128;45.582;5.298;2024-03-23T01:23:30;16.60;74.10
33827;DHT22;20128;45.582;5.298;2024-03-23T01:25:56;16.50;73.80
33827;DHT22;20128;45.582;5.298;2024-03-23T01:28:21;16.50;73.90
33827;DHT22;20128;45.582;5.298;2024-03-23T01:30:48;16.50;73.90
33827;DHT22;20128;45.582;5.298;2024-03-23T01:33:15;16.50;74.30
33827;DHT22;20128;45.582;5.298;2024-03-23T01:35:40;16.60;74.70
33827;DHT22;20128;45.582;5.298;2024-03-23T01:38:06;16.60;74.60
33827;DHT22;20128;45.582;5.298;2024-03-23T01:40:32;16.50;74.90
33827;DHT22;20128;45.582;5.298;2024-03-23T01:43:03;16.50;74.50
33827;DHT22;20128;45.582;5.298;2024-03-23T01:45:30;16.50;73.80
33827;DHT22;20128;45.582;5.298;2024-03-23T01:47:56;16.40;73.70
33827;DHT22;20128;45.582;5.298;2024-03-23T01:50:22;16.50;73.30
33827;DHT22;20128;45.582;5.298;2024-03-23T01:52:48;16.50;73.30
33827;DHT22;20128;45.582;5.298;2024-03-23T01:55:14;16.50;73.20
33827;DHT22;20128;45.582;5.298;2024-03-23T01:57:40;16.50;73.20
33827;DHT22;20128;45.582;5.298;2024-03-23T02:00:06;16.50;73.00
33827;DHT22;20128;45.582;5.298;2024-03-23T02:02:32;16.50;72.90
33827;DHT22;20128;45.582;5.298;2024-03-23T02:04:58;16.50;73.00
33827;DHT22;20128;45.582;5.298;2024-03-23T02:07:24;16.50;72.90
33827;DHT22;20128;45.582;5.298;2024-03-23T02:09:51;16.50;73.00
33827;DHT22;20128;45.582;5.298;2024-03-23T02:12:17;16.50;73.00
33827;DHT22;20128;45.582;5.298;2024-03-23T02:14:43;16.50;73.00
33827;DHT22;20128;45.582;5.298;2024-03-23T02:17:09;16.50;73.10
33827;DHT22;20128;45.582;5.298;2024-03-23T02:19:34;16.60;73.00
33827;DHT22;20128;45.582;5.298;2024-03-23T02:22:00;16.60;72.90
33827;DHT22;20128;45.582;5.298;2024-03-23T02:24:26;16.60;73.70
33827;DHT22;20128;45.582;5.298;2024-03-23T02:26:51;16.60;73.90
33827;DHT22;20128;45.582;5.298;2024-03-23T02:29:17;16.70;73.90
33827;DHT22;20128;45.582;5.298;2024-03-23T02:31:43;16.70;74.60
33827;DHT22;20128;45.582;5.298;2024-03-23T02:34:08;16.70;74.80
33827;DHT22;20128;45.582;5.298;2024-03-23T02:36:34;16.80;74.60
33827;DHT22;20128;45.582;5.298;2024-03-23T02:39:00;16.80;74.60
33827;DHT22;20128;45.582;5.298;2024-03-23T02:41:25;16.80;74.50
33827;DHT22;20128;45.582;5.298;2024-03-23T02:43:51;16.80;74.80
33827;DHT22;20128;45.582;5.298;2024-03-23T02:46:17;16.80;74.90
33827;DHT22;20128;45.582;5.298;2024-03-23T02:48:42;16.80;74.60
33827;DHT22;20128;45.582;5.298;2024-03-23T02:51:08;16.70;74.80
33827;DHT22;20128;45.582;5.298;2024-03-23T02:53:34;16.60;74.60
33827;DHT22;20128;45.582;5.298;2024-03-23T02:56:00;16.60;74.60
33827;DHT22;20128;45.582;5.298;2024-03-23T02:58:25;16.60;74.30
33827;DHT22;20128;45.582;5.298;2024-03-23T03:00:51;16.50;74.10
33827;DHT22;20128;45.582;5.298;2024-03-23T03:03:16;16.50;74.20
33827;DHT22;20128;45.582;5.298;2024-03-23T03:05:43;16.50;74.10
33827;DHT22;20128;45.582;5.298;2024-03-23T03:08:08;16.50;74.60
33827;DHT22;20128;45.582;5.298;2024-03-23T03:10:34;16.60;74.70
33827;DHT22;20128;45.582;5.298;2024-03-23T03:13:02;16.60;74.60
33827;DHT22;20128;45.582;5.298;2024-03-23T03:15:28;16.60;74.90
33827;DHT22;20128;45.582;5.298;2024-03-23T03:17:54;16.70;75.30
33827;DHT22;20128;45.582;5.298;2024-03-23T03:20:19;16.70;75.80
33827;DHT22;20128;45.582;5.298;2024-03-23T03:22:47;16.70;75.60
33827;DHT22;20128;45.582;5.298;2024-03-23T03:25:13;16.70;75.30
33827;DHT22;20128;45.582;5.298;2024-03-23T03:27:39;16.70;75.50
33827;DHT22;20128;45.582;5.298;2024-03-23T03:30:05;16.60;75.40
33827;DHT22;20128;45.582;5.298;2024-03-23T03:32:32;16.70;75.90
33827;DHT22;20128;45.582;5.298;2024-03-23T03:34:58;16.70;75.60
33827;DHT22;20128;45.582;5.298;2024-03-23T03:37:24;16.70;75.60
33827;DHT22;20128;45.582;5.298;2024-03-23T03:39:49;16.70;75.90
33827;DHT22;20128;45.582;5.298;2024-03-23T03:42:15;16.60;75.90
33827;DHT22;20128;45.582;5.298;2024-03-23T03:44:41;16.60;75.90
33827;DHT22;20128;45.582;5.298;2024-03-23T03:47:07;16.60;76.10
33827;DHT22;20128;45.582;5.298;2024-03-23T03:49:33;16.60;76.00
33827;DHT22;20128;45.582;5.298;2024-03-23T03:51:58;16.60;76.30
33827;DHT22;20128;45.582;5.298;2024-03-23T03:54:24;16.60;76.60
33827;DHT22;20128;45.582;5.298;2024-03-23T03:56:49;16.60;76.50
33827;DHT22;20128;45.582;5.298;2024-03-23T03:59:16;16.60;76.40
33827;DHT22;20128;45.582;5.298;2024-03-23T04:01:42;16.60;75.70
33827;DHT22;20128;45.582;5.298;2024-03-23T04:04:08;16.50;75.40
33827;DHT22;20128;45.582;5.298;2024-03-23T04:06:33;16.40;76.20
33827;DHT22;20128;45.582;5.298;2024-03-23T04:08:59;16.40;75.60
33827;DHT22;20128;45.582;5.298;2024-03-23T04:11:25;16.30;75.70
33827;DHT22;20128;45.582;5.298;2024-03-23T04:13:50;16.30;75.90
33827;DHT22;20128;45.582;5.298;2024-03-23T04:16:31;16.30;75.50
33827;DHT22;20128;45.582;5.298;2024-03-23T04:18:58;16.30;75.80
33827;DHT22;20128;45.582;5.298;2024-03-23T04:21:23;16.30;76.20
33827;DHT22;20128;45.582;5.298;2024-03-23T04:23:49;16.20;76.00
33827;DHT22;20128;45.582;5.298;2024-03-23T04:26:15;16.20;75.70
33827;DHT22;20128;45.582;5.298;2024-03-23T04:28:41;16.10;75.60
33827;DHT22;20128;45.582;5.298;2024-03-23T04:31:06;16.20;76.50
33827;DHT22;20128;45.582;5.298;2024-03-23T04:33:32;16.20;76.90
33827;DHT22;20128;45.582;5.298;2024-03-23T04:35:58;16.20;77.10
33827;DHT22;20128;45.582;5.298;2024-03-23T04:38:23;16.10;77.00
33827;DHT22;20128;45.582;5.298;2024-03-23T04:40:59;16.10;77.10
33827;DHT22;20128;45.582;5.298;2024-03-23T04:43:26;16.10;76.90
33827;DHT22;20128;45.582;5.298;2024-03-23T04:45:52;16.10;76.60
33827;DHT22;20128;45.582;5.298;2024-03-23T04:48:20;16.10;76.50
33827;DHT22;20128;45.582;5.298;2024-03-23T04:50:47;16.10;77.00
33827;DHT22;20128;45.582;5.298;2024-03-23T04:53:13;16.10;76.80
33827;DHT22;20128;45.582;5.298;2024-03-23T04:55:39;16.10;77.30
33827;DHT22;20128;45.582;5.298;2024-03-23T04:58:04;16.10;77.60
33827;DHT22;20128;45.582;5.298;2024-03-23T05:00:30;16.20;77.50
33827;DHT22;20128;45.582;5.298;2024-03-23T05:02:55;16.20;77.30
33827;DHT22;20128;45.582;5.298;2024-03-23T05:05:21;16.30;77.70
33827;DHT22;20128;45.582;5.298;2024-03-23T05:07:47;16.30;77.60
33827;DHT22;20128;45.582;5.298;2024-03-23T05:10:12;16.20;77.30
33827;DHT22;20128;45.582;5.298;2024-03-23T05:12:39;16.10;77.50
33827;DHT22;20128;45.582;5.298;2024-03-23T05:15:05;16.10;77.70
33827;DHT22;20128;45.582;5.298;2024-03-23T05:17:34;16.10;77.70
33827;DHT22;20128;45.582;5.298;2024-03-23T05:20:00;16.10;78.20
33827;DHT22;20128;45.582;5.298;2024-03-23T05:22:26;16.10;78.30
33827;DHT22;20128;45.582;5.298;2024-03-23T05:24:53;16.00;78.00
33827;DHT22;20128;45.582;5.298;2024-03-23T05:27:19;16.00;78.20
33827;DHT22;20128;45.582;5.298;2024-03-23T05:29:44;15.90;78.30
33827;DHT22;20128;45.582;5.298;2024-03-23T05:32:10;15.80;79.10
33827;DHT22;20128;45.582;5.298;2024-03-23T05:34:36;15.70;78.90
33827;DHT22;20128;45.582;5.298;2024-03-23T05:37:01;15.80;79.30
33827;DHT22;20128;45.582;5.298;2024-03-23T05:39:28;15.70;79.90
33827;DHT22;20128;45.582;5.298;2024-03-23T05:41:53;15.60;80.00
33827;DHT22;20128;45.582;5.298;2024-03-23T05:44:22;15.50;80.40
33827;DHT22;20128;45.582;5.298;2024-03-23T05:46:50;15.50;80.70
33827;DHT22;20128;45.582;5.298;2024-03-23T05:49:16;15.50;80.80
33827;DHT22;20128;45.582;5.298;2024-03-23T05:51:43;15.40;80.90
33827;DHT22;20128;45.582;5.298;2024-03-23T05:54:09;15.40;81.30
33827;DHT22;20128;45.582;5.298;2024-03-23T05:56:35;15.40;81.70
33827;DHT22;20128;45.582;5.298;2024-03-23T05:59:00;15.40;81.70
33827;DHT22;20128;45.582;5.298;2024-03-23T06:01:26;15.50;81.90
33827;DHT22;20128;45.582;5.298;2024-03-23T06:03:54;15.50;82.00
33827;DHT22;20128;45.582;5.298;2024-03-23T06:06:20;15.60;82.00
33827;DHT22;20128;45.582;5.298;2024-03-23T06:08:45;15.60;81.60
33827;DHT22;20128;45.582;5.298;2024-03-23T06:11:14;15.50;80.70
33827;DHT22;20128;45.582;5.298;2024-03-23T06:13:44;15.50;80.60
33827;DHT22;20128;45.582;5.298;2024-03-23T06:16:10;15.40;80.40
33827;DHT22;20128;45.582;5.298;2024-03-23T06:18:36;15.50;80.20
33827;DHT22;20128;45.582;5.298;2024-03-23T06:21:08;15.40;79.60
33827;DHT22;20128;45.582;5.298;2024-03-23T06:23:38;15.40;79.60
33827;DHT22;20128;45.582;5.298;2024-03-23T06:26:03;15.40;79.20
33827;DHT22;20128;45.582;5.298;2024-03-23T06:28:29;15.40;78.50
33827;DHT22;20128;45.582;5.298;2024-03-23T06:30:55;15.40;78.80
33827;DHT22;20128;45.582;5.298;2024-03-23T06:33:20;15.40;77.90
33827;DHT22;20128;45.582;5.298;2024-03-23T06:35:53;15.40;78.00
33827;DHT22;20128;45.582;5.298;2024-03-23T06:38:19;15.30;77.70
33827;DHT22;20128;45.582;5.298;2024-03-23T06:40:50;15.30;77.40
33827;DHT22;20128;45.582;5.298;2024-03-23T06:43:25;15.30;77.30
33827;DHT22;20128;45.582;5.298;2024-03-23T06:45:54;15.30;77.50
33827;DHT22;20128;45.582;5.298;2024-03-23T06:48:22;15.20;75.80
33827;DHT22;20128;45.582;5.298;2024-03-23T06:50:54;15.10;75.80
33827;DHT22;20128;45.582;5.298;2024-03-23T06:53:20;15.10;76.20
33827;DHT22;20128;45.582;5.298;2024-03-23T06:55:51;15.00;76.00
33827;DHT22;20128;45.582;5.298;2024-03-23T06:58:17;15.00;76.20
33827;DHT22;20128;45.582;5.298;2024-03-23T07:00:43;15.00;76.20
33827;DHT22;20128;45.582;5.298;2024-03-23T07:03:09;14.90;76.50
33827;DHT22;20128;45.582;5.298;2024-03-23T07:05:34;15.00;76.60
33827;DHT22;20128;45.582;5.298;2024-03-23T07:08:07;14.90;76.70
33827;DHT22;20128;45.582;5.298;2024-03-23T07:10:32;14.90;77.00
33827;DHT22;20128;45.582;5.298;2024-03-23T07:12:58;14.80;77.20
33827;DHT22;20128;45.582;5.298;2024-03-23T07:15:24;14.80;77.40
33827;DHT22;20128;45.582;5.298;2024-03-23T07:17:50;14.70;77.70
33827;DHT22;20128;45.582;5.298;2024-03-23T07:20:16;14.50;76.00
33827;DHT22;20128;45.582;5.298;2024-03-23T07:22:41;14.40;75.20
33827;DHT22;20128;45.582;5.298;2024-03-23T07:25:07;14.30;74.30
33827;DHT22;20128;45.582;5.298;2024-03-23T07:27:33;14.20;74.20
33827;DHT22;20128;45.582;5.298;2024-03-23T07:29:59;14.20;74.30
33827;DHT22;20128;45.582;5.298;2024-03-23T07:32:26;14.20;74.10
33827;DHT22;20128;45.582;5.298;2024-03-23T07:34:52;14.20;73.80
33827;DHT22;20128;45.582;5.298;2024-03-23T07:37:18;14.10;73.80
33827;DHT22;20128;45.582;5.298;2024-03-23T07:39:44;13.90;74.00
33827;DHT22;20128;45.582;5.298;2024-03-23T07:42:12;13.90;74.30
33827;DHT22;20128;45.582;5.298;2024-03-23T07:44:37;14.00;74.30
33827;DHT22;20128;45.582;5.298;2024-03-23T07:47:03;14.00;74.30
33827;DHT22;20128;45.582;5.298;2024-03-23T07:49:29;13.90;74.40
33827;DHT22;20128;45.582;5.298;2024-03-23T07:52:15;14.00;74.30
33827;DHT22;20128;45.582;5.298;2024-03-23T08:08:54;13.50;69.60
33827;DHT22;20128;45.582;5.298;2024-03-23T09:09:22;13.60;58.70
33827;DHT22;20128;45.582;5.298;2024-03-23T09:11:58;13.70;56.70
33827;DHT22;20128;45.582;5.298;2024-03-23T09:14:24;13.80;56.30
33827;DHT22;20128;45.582;5.298;2024-03-23T09:16:50;13.90;56.80
33827;DHT22;20128;45.582;5.298;2024-03-23T09:19:17;14.00;56.60
33827;DHT22;20128;45.582;5.298;2024-03-23T09:21:45;14.10;56.90
33827;DHT22;20128;45.582;5.298;2024-03-23T09:24:11;14.20;56.10
33827;DHT22;20128;45.582;5.298;2024-03-23T09:26:42;14.20;56.10
33827;DHT22;20128;45.582;5.298;2024-03-23T09:29:08;14.30;55.10
33827;DHT22;20128;45.582;5.298;2024-03-23T09:31:34;14.30;55.20
33827;DHT22;20128;45.582;5.298;2024-03-23T09:34:00;14.40;54.20
33827;DHT22;20128;45.582;5.298;2024-03-23T09:36:25;14.50;54.00
33827;DHT22;20128;45.582;5.298;2024-03-23T09:38:51;14.60;53.30
33827;DHT22;20128;45.582;5.298;2024-03-23T09:41:17;14.70;52.60
33827;DHT22;20128;45.582;5.298;2024-03-23T09:43:43;14.70;53.00
33827;DHT22;20128;45.582;5.298;2024-03-23T09:46:08;14.80;53.50
33827;DHT22;20128;45.582;5.298;2024-03-23T09:48:34;15.00;53.50
33827;DHT22;20128;45.582;5.298;2024-03-23T09:51:02;15.10;53.30
33827;DHT22;20128;45.582;5.298;2024-03-23T09:53:28;15.30;52.60
33827;DHT22;20128;45.582;5.298;2024-03-23T09:55:53;15.50;51.60
33827;DHT22;20128;45.582;5.298;2024-03-23T09:58:20;15.60;51.50
33827;DHT22;20128;45.582;5.298;2024-03-23T10:00:46;15.60;51.40
33827;DHT22;20128;45.582;5.298;2024-03-23T10:03:12;15.70;50.90
33827;DHT22;20128;45.582;5.298;2024-03-23T10:05:38;15.60;49.50
33827;DHT22;20128;45.582;5.298;2024-03-23T10:10:39;15.60;50.90
33827;DHT22;20128;45.582;5.298;2024-03-23T10:13:04;15.80;50.90
33827;DHT22;20128;45.582;5.298;2024-03-23T10:15:34;16.00;50.70
33827;DHT22;20128;45.582;5.298;2024-03-23T10:18:17;16.10;50.80
33827;DHT22;20128;45.582;5.298;2024-03-23T10:20:43;16.30;51.00
33827;DHT22;20128;45.582;5.298;2024-03-23T10:23:18;16.40;49.80
33827;DHT22;20128;45.582;5.298;2024-03-23T10:25:44;16.50;49.70
33827;DHT22;20128;45.582;5.298;2024-03-23T10:28:11;16.50;49.60
33827;DHT22;20128;45.582;5.298;2024-03-23T10:30:37;16.60;49.60
33827;DHT22;20128;45.582;5.298;2024-03-23T10:33:09;16.70;48.60
33827;DHT22;20128;45.582;5.298;2024-03-23T10:35:37;16.60;48.80
33827;DHT22;20128;45.582;5.298;2024-03-23T10:38:06;16.60;49.60
33827;DHT22;20128;45.582;5.298;2024-03-23T10:40:35;16.70;50.00
33827;DHT22;20128;45.582;5.298;2024-03-23T10:43:00;16.80;49.60
33827;DHT22;20128;45.582;5.298;2024-03-23T10:45:28;16.80;48.90
33827;DHT22;20128;45.582;5.298;2024-03-23T10:47:54;16.90;48.30
33827;DHT22;20128;45.582;5.298;2024-03-23T10:50:19;16.70;47.90
33827;DHT22;20128;45.582;5.298;2024-03-23T10:52:49;16.70;47.20
33827;DHT22;20128;45.582;5.298;2024-03-23T10:55:17;16.70;47.90
33827;DHT22;20128;45.582;5.298;2024-03-23T10:57:48;16.90;48.00
33827;DHT22;20128;45.582;5.298;2024-03-23T11:00:15;17.10;48.30
33827;DHT22;20128;45.582;5.298;2024-03-23T11:02:41;17.40;47.90
33827;DHT22;20128;45.582;5.298;2024-03-23T11:07:51;17.20;47.50
33827;DHT22;20128;45.582;5.298;2024-03-23T11:10:28;17.00;48.30
33827;DHT22;20128;45.582;5.298;2024-03-23T11:12:55;17.00;47.60
33827;DHT22;20128;45.582;5.298;2024-03-23T11:15:21;17.10;47.50
33827;DHT22;20128;45.582;5.298;2024-03-23T11:18:13;17.20;47.30
33827;DHT22;20128;45.582;5.298;2024-03-23T11:20:45;17.20;44.20
33827;DHT22;20128;45.582;5.298;2024-03-23T11:23:27;17.10;43.10
33827;DHT22;20128;45.582;5.298;2024-03-23T11:25:53;17.00;43.90
33827;DHT22;20128;45.582;5.298;2024-03-23T11:28:18;17.00;45.30
33827;DHT22;20128;45.582;5.298;2024-03-23T11:30:44;17.20;45.90
33827;DHT22;20128;45.582;5.298;2024-03-23T11:33:10;17.30;45.80
33827;DHT22;20128;45.582;5.298;2024-03-23T11:35:39;17.40;45.00
33827;DHT22;20128;45.582;5.298;2024-03-23T11:38:12;17.40;45.10
33827;DHT22;20128;45.582;5.298;2024-03-23T11:40:39;17.40;45.00
33827;DHT22;20128;45.582;5.298;2024-03-23T11:43:10;17.40;45.10
33827;DHT22;20128;45.582;5.298;2024-03-23T11:45:46;17.40;45.60
33827;DHT22;20128;45.582;5.298;2024-03-23T11:50:40;17.50;43.30
33827;DHT22;20128;45.582;5.298;2024-03-23T11:53:23;17.40;43.50
33827;DHT22;20128;45.582;5.298;2024-03-23T11:58:20;17.50;43.70
33827;DHT22;20128;45.582;5.298;2024-03-23T12:01:00;17.60;44.00
33827;DHT22;20128;45.582;5.298;2024-03-23T12:03:36;17.60;43.50
33827;DHT22;20128;45.582;5.298;2024-03-23T12:06:03;17.70;43.30
33827;DHT22;20128;45.582;5.298;2024-03-23T12:08:32;17.60;43.10
33827;DHT22;20128;45.582;5.298;2024-03-23T12:11:12;17.60;41.90
33827;DHT22;20128;45.582;5.298;2024-03-23T12:13:40;17.40;39.90
33827;DHT22;20128;45.582;5.298;2024-03-23T12:18:49;17.30;42.40
33827;DHT22;20128;45.582;5.298;2024-03-23T12:21:16;17.30;42.50
33827;DHT22;20128;45.582;5.298;2024-03-23T12:23:43;17.20;42.80
33827;DHT22;20128;45.582;5.298;2024-03-23T12:26:12;17.10;42.80
33827;DHT22;20128;45.582;5.298;2024-03-23T12:28:38;17.10;41.40
33827;DHT22;20128;45.582;5.298;2024-03-23T12:31:04;17.20;41.40
33827;DHT22;20128;45.582;5.298;2024-03-23T12:33:31;17.20;39.90
33827;DHT22;20128;45.582;5.298;2024-03-23T12:35:57;17.20;39.50
33827;DHT22;20128;45.582;5.298;2024-03-23T12:38:22;17.10;39.20
33827;DHT22;20128;45.582;5.298;2024-03-23T12:40:51;17.10;38.70
33827;DHT22;20128;45.582;5.298;2024-03-23T12:43:17;17.10;38.70
33827;DHT22;20128;45.582;5.298;2024-03-23T12:45:47;17.10;39.60
33827;DHT22;20128;45.582;5.298;2024-03-23T12:48:13;17.10;38.80
33827;DHT22;20128;45.582;5.298;2024-03-23T12:50:39;17.20;37.60
33827;DHT22;20128;45.582;5.298;2024-03-23T12:53:04;17.10;37.90
33827;DHT22;20128;45.582;5.298;2024-03-23T12:55:30;17.10;37.50
33827;DHT22;20128;45.582;5.298;2024-03-23T12:57:55;17.00;37.80
33827;DHT22;20128;45.582;5.298;2024-03-23T13:00:22;17.10;39.00
33827;DHT22;20128;45.582;5.298;2024-03-23T13:02:47;17.20;37.80
33827;DHT22;20128;45.582;5.298;2024-03-23T13:05:13;17.20;38.30
33827;DHT22;20128;45.582;5.298;2024-03-23T13:07:39;17.20;37.90
33827;DHT22;20128;45.582;5.298;2024-03-23T13:10:05;17.30;39.10
33827;DHT22;20128;45.582;5.298;2024-03-23T13:12:32;17.30;40.30
33827;DHT22;20128;45.582;5.298;2024-03-23T13:14:58;17.20;39.40
33827;DHT22;20128;45.582;5.298;2024-03-23T13:17:25;17.30;40.00
33827;DHT22;20128;45.582;5.298;2024-03-23T13:19:52;17.30;40.60
33827;DHT22;20128;45.582;5.298;2024-03-23T13:22:18;17.40;40.00
33827;DHT22;20128;45.582;5.298;2024-03-23T13:24:44;17.50;40.20
33827;DHT22;20128;45.582;5.298;2024-03-23T13:27:10;17.50;39.60
33827;DHT22;20128;45.582;5.298;2024-03-23T13:29:36;17.60;39.00
33827;DHT22;20128;45.582;5.298;2024-03-23T13:32:03;17.60;38.50
33827;DHT22;20128;45.582;5.298;2024-03-23T13:34:29;17.60;39.00
33827;DHT22;20128;45.582;5.298;2024-03-23T13:36:55;17.70;38.90
33827;DHT22;20128;45.582;5.298;2024-03-23T13:39:24;17.80;39.30
33827;DHT22;20128;45.582;5.298;2024-03-23T13:41:50;17.90;39.70
33827;DHT22;20128;45.582;5.298;2024-03-23T13:44:16;17.90;39.20
33827;DHT22;20128;45.582;5.298;2024-03-23T13:46:43;18.00;39.30
33827;DHT22;20128;45.582;5.298;2024-03-23T13:51:48;18.00;37.60
33827;DHT22;20128;45.582;5.298;2024-03-23T13:54:14;18.00;39.00
33827;DHT22;20128;45.582;5.298;2024-03-23T13:56:39;18.10;38.40
33827;DHT22;20128;45.582;5.298;2024-03-23T13:59:05;18.10;39.30
33827;DHT22;20128;45.582;5.298;2024-03-23T14:01:31;18.10;39.30
33827;DHT22;20128;45.582;5.298;2024-03-23T14:03:57;18.20;39.60
33827;DHT22;20128;45.582;5.298;2024-03-23T14:06:22;18.30;39.20
33827;DHT22;20128;45.582;5.298;2024-03-23T14:08:49;18.40;39.50
33827;DHT22;20128;45.582;5.298;2024-03-23T14:11:18;18.30;39.00
33827;DHT22;20128;45.582;5.298;2024-03-23T14:13:44;18.30;39.00
33827;DHT22;20128;45.582;5.298;2024-03-23T14:16:09;18.20;39.30
33827;DHT22;20128;45.582;5.298;2024-03-23T14:18:35;18.20;39.20
33827;DHT22;20128;45.582;5.298;2024-03-23T14:21:01;18.50;39.20
33827;DHT22;20128;45.582;5.298;2024-03-23T14:23:28;18.70;39.20
33827;DHT22;20128;45.582;5.298;2024-03-23T14:26:00;18.80;38.80
33827;DHT22;20128;45.582;5.298;2024-03-23T14:28:25;18.90;39.40
33827;DHT22;20128;45.582;5.298;2024-03-23T14:30:52;19.10;39.00
33827;DHT22;20128;45.582;5.298;2024-03-23T14:33:18;19.10;39.20
33827;DHT22;20128;45.582;5.298;2024-03-23T14:35:53;19.10;38.90
33827;DHT22;20128;45.582;5.298;2024-03-23T14:38:20;19.00;38.10
33827;DHT22;20128;45.582;5.298;2024-03-23T14:40:46;19.10;38.90
33827;DHT22;20128;45.582;5.298;2024-03-23T14:43:12;19.10;38.80
33827;DHT22;20128;45.582;5.298;2024-03-23T14:48:33;19.20;37.90
33827;DHT22;20128;45.582;5.298;2024-03-23T14:51:00;19.30;39.00
33827;DHT22;20128;45.582;5.298;2024-03-23T14:53:26;19.50;38.90
33827;DHT22;20128;45.582;5.298;2024-03-23T14:55:56;19.60;38.40
33827;DHT22;20128;45.582;5.298;2024-03-23T14:58:22;19.70;37.80
33827;DHT22;20128;45.582;5.298;2024-03-23T15:00:48;19.80;38.20
33827;DHT22;20128;45.582;5.298;2024-03-23T15:03:14;19.80;38.10
33827;DHT22;20128;45.582;5.298;2024-03-23T15:05:40;19.70;38.40
33827;DHT22;20128;45.582;5.298;2024-03-23T15:08:06;19.70;38.80
33827;DHT22;20128;45.582;5.298;2024-03-23T15:10:34;19.70;38.70
33827;DHT22;20128;45.582;5.298;2024-03-23T15:13:00;19.50;38.80
33827;DHT22;20128;45.582;5.298;2024-03-23T15:15:26;19.40;38.80
33827;DHT22;20128;45.582;5.298;2024-03-23T15:17:54;19.30;39.20
33827;DHT22;20128;45.582;5.298;2024-03-23T15:20:19;19.40;39.00
33827;DHT22;20128;45.582;5.298;2024-03-23T15:22:45;19.40;39.00
33827;DHT22;20128;45.582;5.298;2024-03-23T15:25:10;19.30;39.00
33827;DHT22;20128;45.582;5.298;2024-03-23T15:27:36;19.30;38.90
33827;DHT22;20128;45.582;5.298;2024-03-23T15:30:01;19.30;39.30
33827;DHT22;20128;45.582;5.298;2024-03-23T15:32:27;19.30;39.40
33827;DHT22;20128;45.582;5.298;2024-03-23T15:34:53;19.40;39.50
33827;DHT22;20128;45.582;5.298;2024-03-23T15:37:18;19.60;38.90
33827;DHT22;20128;45.582;5.298;2024-03-23T15:39:44;19.60;38.60
33827;DHT22;20128;45.582;5.298;2024-03-23T15:42:09;19.70;38.90
33827;DHT22;20128;45.582;5.298;2024-03-23T15:44:36;19.70;38.80
33827;DHT22;20128;45.582;5.298;2024-03-23T15:47:01;19.60;38.20
33827;DHT22;20128;45.582;5.298;2024-03-23T15:49:27;19.50;38.50
33827;DHT22;20128;45.582;5.298;2024-03-23T15:51:53;19.60;38.90
33827;DHT22;20128;45.582;5.298;2024-03-23T15:54:19;19.60;38.50
33827;DHT22;20128;45.582;5.298;2024-03-23T15:56:45;19.60;38.00
33827;DHT22;20128;45.582;5.298;2024-03-23T15:59:11;19.50;37.90
33827;DHT22;20128;45.582;5.298;2024-03-23T16:01:36;19.50;38.60
33827;DHT22;20128;45.582;5.298;2024-03-23T16:04:03;19.50;38.60
33827;DHT22;20128;45.582;5.298;2024-03-23T16:06:29;19.50;38.90
33827;DHT22;20128;45.582;5.298;2024-03-23T16:08:55;19.50;38.80
33827;DHT22;20128;45.582;5.298;2024-03-23T16:11:20;19.60;39.10
33827;DHT22;20128;45.582;5.298;2024-03-23T16:13:46;19.70;39.00
33827;DHT22;20128;45.582;5.298;2024-03-23T16:16:12;19.70;39.00
33827;DHT22;20128;45.582;5.298;2024-03-23T16:18:38;19.80;39.10
33827;DHT22;20128;45.582;5.298;2024-03-23T16:21:08;19.70;39.20
33827;DHT22;20128;45.582;5.298;2024-03-23T16:23:35;19.70;38.80
33827;DHT22;20128;45.582;5.298;2024-03-23T16:26:04;19.60;38.50
33827;DHT22;20128;45.582;5.298;2024-03-23T16:28:31;19.60;38.70
33827;DHT22;20128;45.582;5.298;2024-03-23T16:30:58;19.50;38.80
33827;DHT22;20128;45.582;5.298;2024-03-23T16:33:24;19.50;39.00
33827;DHT22;20128;45.582;5.298;2024-03-23T16:35:57;19.50;39.10
33827;DHT22;20128;45.582;5.298;2024-03-23T16:38:22;19.50;39.50
33827;DHT22;20128;45.582;5.298;2024-03-23T16:41:04;19.40;39.60
33827;DHT22;20128;45.582;5.298;2024-03-23T16:43:31;19.40;39.60
33827;DHT22;20128;45.582;5.298;2024-03-23T16:45:59;19.40;39.60
33827;DHT22;20128;45.582;5.298;2024-03-23T16:48:26;19.40;39.20
33827;DHT22;20128;45.582;5.298;2024-03-23T16:50:52;19.20;38.30
33827;DHT22;20128;45.582;5.298;2024-03-23T16:53:18;19.00;39.20
33827;DHT22;20128;45.582;5.298;2024-03-23T16:55:44;19.00;39.70
33827;DHT22;20128;45.582;5.298;2024-03-23T16:58:10;19.00;39.90
33827;DHT22;20128;45.582;5.298;2024-03-23T17:00:36;19.00;41.00
33827;DHT22;20128;45.582;5.298;2024-03-23T17:03:03;19.00;40.00
33827;DHT22;20128;45.582;5.298;2024-03-23T17:05:29;18.90;40.20
33827;DHT22;20128;45.582;5.298;2024-03-23T17:07:54;18.90;40.30
33827;DHT22;20128;45.582;5.298;2024-03-23T17:10:22;18.90;40.30
33827;DHT22;20128;45.582;5.298;2024-03-23T17:12:48;18.90;40.30
33827;DHT22;20128;45.582;5.298;2024-03-23T17:15:14;18.90;40.40
33827;DHT22;20128;45.582;5.298;2024-03-23T17:17:40;18.80;40.70
33827;DHT22;20128;45.582;5.298;2024-03-23T17:20:06;18.70;40.60
33827;DHT22;20128;45.582;5.298;2024-03-23T17:22:32;18.60;40.70
33827;DHT22;20128;45.582;5.298;2024-03-23T17:24:58;18.60;41.00
33827;DHT22;20128;45.582;5.298;2024-03-23T17:27:23;18.60;41.20
33827;DHT22;20128;45.582;5.298;2024-03-23T17:29:49;18.60;41.30
33827;DHT22;20128;45.582;5.298;2024-03-23T17:32:14;18.50;41.30
33827;DHT22;20128;45.582;5.298;2024-03-23T17:34:40;18.60;41.60
33827;DHT22;20128;45.582;5.298;2024-03-23T17:37:06;18.40;41.60
33827;DHT22;20128;45.582;5.298;2024-03-23T17:39:31;18.40;42.00
33827;DHT22;20128;45.582;5.298;2024-03-23T17:41:57;18.40;42.50
33827;DHT22;20128;45.582;5.298;2024-03-23T17:44:23;18.40;42.40
33827;DHT22;20128;45.582;5.298;2024-03-23T17:46:49;18.40;42.10
33827;DHT22;20128;45.582;5.298;2024-03-23T17:49:15;18.50;42.00
33827;DHT22;20128;45.582;5.298;2024-03-23T17:51:42;18.40;41.90